Time;durP1;ratioP1;P1;durP2;ratioP2;P2;SDS_P1;SDS_P2;PMS_P1;PMS_P2;Temp;Humidity;BMP_temperature;BMP_pressure;BME280_temperature;BME280_humidity;BME280_pressure;Samples;Min_cycle;Max_cycle;Signal;HPM_P1;HPM_P2
2021/03/17 00:00:10;;;;;;;21.02;10.82;;;;;;;2.35;83.66;100709.64;1755968;81;21146;-71
2021/03/17 00:02:38;;;;;;;18.27;10.40;;;;;;;2.34;83.64;100710.58;1757954;81;21605;-71
2021/03/17 00:05:06;;;;;;;32.35;13.03;;;;;;;2.35;83.64;100705.70;1704767;81;21675;-71
2021/03/17 00:07:33;;;;;;;32.38;14.25;;;;;;;2.36;83.64;100703.41;1729789;81;21990;-71
2021/03/17 00:09:59;;;;;;;29.35;14.80;;;;;;;2.37;83.66;100711.67;1715580;82;21144;-71
2021/03/17 00:12:25;;;;;;;23.18;12.80;;;;;;;2.39;83.69;100701.05;1718198;82;21628;-71
2021/03/17 00:14:52;;;;;;;23.83;13.03;;;;;;;2.38;83.69;100705.47;1700688;84;21622;-71
2021/03/17 00:17:18;;;;;;;25.20;13.98;;;;;;;2.38;83.74;100702.84;1700573;84;21179;-71
2021/03/17 00:19:45;;;;;;;29.90;15.38;;;;;;;2.38;83.74;100705.94;1700147;84;21151;-71
2021/03/17 00:22:11;;;;;;;33.83;16.40;;;;;;;2.38;83.75;100705.47;1700613;84;21719;-71
2021/03/17 00:24:37;;;;;;;21.57;12.73;;;;;;;2.37;83.75;100710.36;1700476;84;21136;-71
2021/03/17 00:27:04;;;;;;;19.55;12.23;;;;;;;2.35;83.75;100709.64;1700525;84;21255;-71
2021/03/17 00:29:31;;;;;;;23.65;12.55;;;;;;;2.34;83.74;100706.64;1698992;84;21199;-71
2021/03/17 00:31:57;;;;;;;16.45;10.48;;;;;;;2.34;83.73;100703.16;1701771;82;21191;-71
2021/03/17 00:34:24;;;;;;;16.23;9.98;;;;;;;2.34;83.73;100700.53;1700958;84;21207;-71
2021/03/17 00:36:50;;;;;;;22.80;13.20;;;;;;;2.34;83.74;100702.69;1722323;81;21164;-71
2021/03/17 00:39:16;;;;;;;16.80;10.95;;;;;;;2.36;83.73;100702.09;1777022;80;21253;-71
2021/03/17 00:41:42;;;;;;;18.87;10.43;;;;;;;2.35;83.72;100696.48;1735363;81;21566;-71
2021/03/17 00:44:09;;;;;;;19.67;10.95;;;;;;;2.37;83.75;100698.52;1730243;83;21586;-71
2021/03/17 00:46:35;;;;;;;18.37;11.08;;;;;;;2.37;83.75;100698.52;1729798;82;21152;-71
2021/03/17 00:49:01;;;;;;;17.17;11.15;;;;;;;2.38;83.75;100696.73;1730034;82;21176;-71
2021/03/17 00:51:27;;;;;;;27.02;12.55;;;;;;;2.37;83.76;100695.89;1745076;81;21348;-71
2021/03/17 00:53:54;;;;;;;19.02;10.65;;;;;;;2.35;83.77;100697.80;1760206;81;21155;-71
2021/03/17 00:56:20;;;;;;;16.52;10.43;;;;;;;2.35;83.80;100695.17;1760254;81;21570;-72
2021/03/17 00:58:46;;;;;;;22.55;12.85;;;;;;;2.33;83.80;100693.11;1787439;80;21123;-71
2021/03/17 01:01:12;;;;;;;23.47;13.28;;;;;;;2.32;83.80;100694.05;1787718;80;21052;-71
2021/03/17 01:03:38;;;;;;;18.27;12.00;;;;;;;2.32;83.82;100688.78;1787242;80;21311;-71
2021/03/17 01:06:05;;;;;;;21.12;12.75;;;;;;;2.31;83.83;100691.55;1787384;80;21188;-71
2021/03/17 01:08:31;;;;;;;18.17;11.45;;;;;;;2.32;83.85;100696.68;1769238;80;21113;-71
2021/03/17 01:10:58;;;;;;;17.85;11.18;;;;;;;2.30;83.83;100688.54;1755397;81;21584;-71
2021/03/17 01:13:24;;;;;;;21.40;11.12;;;;;;;2.30;83.81;100700.38;1755017;81;21144;-71
2021/03/17 01:15:51;;;;;;;18.45;11.65;;;;;;;2.30;83.84;100696.44;1782404;80;21141;-71
2021/03/17 01:18:17;;;;;;;19.25;11.65;;;;;;;2.31;83.84;100698.97;1754835;81;21220;-71
2021/03/17 01:20:43;;;;;;;21.60;13.28;;;;;;;2.31;83.85;100700.28;1782434;80;21132;-71
2021/03/17 01:23:10;;;;;;;18.98;12.50;;;;;;;2.33;83.90;100701.47;1754875;81;21164;-71
2021/03/17 01:25:39;;;;;;;19.57;12.60;;;;;;;2.33;83.87;100699.69;1782335;80;21136;-71
2021/03/17 01:28:08;;;;;;;20.05;13.05;;;;;;;2.31;83.90;100695.02;1733636;81;21665;-71
2021/03/17 01:30:43;;;;;;;21.65;12.58;;;;;;;2.31;83.94;100692.39;1729731;81;21165;-71
2021/03/17 01:33:10;;;;;;;24.00;14.70;;;;;;;2.28;83.95;100695.25;1729540;83;21762;-71
2021/03/17 01:35:41;;;;;;;23.45;14.95;;;;;;;2.24;83.97;100691.15;1729663;82;21188;-72
2021/03/17 01:38:08;;;;;;;25.55;12.33;;;;;;;2.23;83.98;100693.41;1729311;83;21155;-71
2021/03/17 01:40:37;;;;;;;22.73;13.58;;;;;;;2.21;83.98;100686.58;1772183;81;21540;-71
2021/03/17 01:43:04;;;;;;;20.62;12.23;;;;;;;2.20;83.99;100694.95;1772362;80;21168;-72
2021/03/17 01:45:30;;;;;;;16.12;11.00;;;;;;;2.21;84.00;100692.69;1772072;81;21180;-71
2021/03/17 01:47:57;;;;;;;17.65;11.05;;;;;;;2.20;84.03;100688.36;1771909;80;21125;-72
2021/03/17 01:50:30;;;;;;;16.77;10.28;;;;;;;2.22;84.03;100691.72;1771843;80;21172;-71
2021/03/17 01:53:03;;;;;;;18.62;10.95;;;;;;;2.23;84.07;100687.30;1772195;81;21311;-71
2021/03/17 01:55:29;;;;;;;15.98;9.30;;;;;;;2.19;84.08;100690.63;1766835;81;21116;-70
2021/03/17 01:57:55;;;;;;;12.85;9.18;;;;;;;2.13;84.10;100692.38;1772275;81;21652;-70
2021/03/17 02:00:22;;;;;;;20.50;11.03;;;;;;;1.98;84.13;100693.45;1772233;81;21128;-70
2021/03/17 02:02:54;;;;;;;15.30;10.08;;;;;;;1.81;84.20;100699.06;1772463;81;21148;-71
2021/03/17 02:05:23;;;;;;;20.65;11.12;;;;;;;1.70;84.22;100697.64;1772198;81;21959;-70
2021/03/17 02:07:52;;;;;;;15.18;10.35;;;;;;;1.59;84.24;100695.76;1771692;80;21140;-71
2021/03/17 02:10:18;;;;;;;18.25;11.40;;;;;;;1.49;84.24;100694.24;1772271;80;21176;-71
2021/03/17 02:13:24;;;;;;;23.87;12.28;;;;;;;1.39;84.24;100693.20;1759315;81;21124;-71
2021/03/17 02:16:21;;;;;;;26.60;13.08;;;;;;;1.35;84.23;100693.03;1785734;80;21569;-71
2021/03/17 02:19:14;;;;;;;20.82;11.55;;;;;;;1.28;84.22;100692.23;1787481;80;21616;-71
2021/03/17 02:22:35;;;;;;;26.77;13.70;;;;;;;1.27;84.24;100694.02;1728175;81;21156;-71
2021/03/17 02:25:27;;;;;;;28.12;13.90;;;;;;;1.26;84.22;100689.73;1726024;82;21153;-71
2021/03/17 02:28:08;;;;;;;56.90;37.10;;;;;;;1.23;84.22;100689.91;1733423;81;21163;-71
2021/03/17 02:31:00;;;;;;;45.43;25.25;;;;;;;1.25;84.23;100694.60;1734344;82;21182;-71
2021/03/17 02:33:52;;;;;;;31.68;20.80;;;;;;;1.26;84.28;100688.88;1734449;82;21252;-71
2021/03/17 02:36:57;;;;;;;30.65;18.20;;;;;;;1.28;84.28;100693.08;1734304;82;21145;-71
2021/03/17 02:39:41;;;;;;;35.58;20.37;;;;;;;1.30;84.32;100688.55;1734264;82;21223;-72
2021/03/17 02:42:18;;;;;;;36.98;23.87;;;;;;;1.32;84.30;100694.55;1734419;82;21230;-72
2021/03/17 02:45:06;;;;;;;38.98;24.32;;;;;;;1.32;84.31;100690.61;1733886;82;21159;-72
2021/03/17 02:47:35;;;;;;;35.33;21.87;;;;;;;1.34;84.32;100692.65;1680394;84;22254;-72
2021/03/17 02:50:02;;;;;;;23.67;12.88;;;;;;;1.36;84.34;100688.16;1705258;84;21103;-72
2021/03/17 02:52:33;;;;;;;32.70;18.50;;;;;;;1.41;84.34;100693.92;1704923;83;21142;-72
2021/03/17 02:54:59;;;;;;;31.68;17.42;;;;;;;1.45;84.36;100690.14;1705077;84;21182;-72
2021/03/17 02:57:25;;;;;;;33.05;17.87;;;;;;;1.53;84.35;100690.09;1704836;84;21181;-72
2021/03/17 02:59:53;;;;;;;31.95;16.27;;;;;;;1.59;84.36;100696.23;1705003;83;21206;-72
2021/03/17 03:02:21;;;;;;;38.05;18.30;;;;;;;1.64;84.38;100696.77;1705032;84;21147;-72
2021/03/17 03:04:49;;;;;;;37.73;18.12;;;;;;;1.69;84.41;100697.30;1718015;82;21173;-71
2021/03/17 03:07:17;;;;;;;33.50;18.27;;;;;;;1.74;84.42;100697.80;1726218;82;21224;-72
2021/03/17 03:09:43;;;;;;;32.15;19.20;;;;;;;1.78;84.44;100687.45;1727865;82;21188;-72
2021/03/17 03:12:10;;;;;;;37.80;20.10;;;;;;;1.83;84.44;100690.61;1734289;81;21266;-71
2021/03/17 03:14:36;;;;;;;33.73;20.02;;;;;;;1.85;84.46;100690.02;1711868;81;21231;-71
2021/03/17 03:17:03;;;;;;;35.43;19.32;;;;;;;1.88;84.50;100690.64;1712464;81;21717;-72
2021/03/17 03:19:34;;;;;;;33.35;18.50;;;;;;;1.92;84.53;100686.02;1764649;81;21116;-72
2021/03/17 03:22:00;;;;;;;33.88;19.45;;;;;;;1.92;84.53;100690.80;1764838;81;21139;-72
2021/03/17 03:24:27;;;;;;;35.65;19.77;;;;;;;1.95;84.58;100692.36;1764923;81;21307;-72
2021/03/17 03:26:54;;;;;;;28.67;17.32;;;;;;;1.98;84.61;100696.09;1764370;81;21194;-72
2021/03/17 03:29:20;;;;;;;30.82;16.62;;;;;;;1.98;84.62;100694.77;1764867;81;21163;-72
2021/03/17 03:31:47;;;;;;;29.95;16.42;;;;;;;1.99;84.64;100699.94;1764664;81;21196;-72
2021/03/17 03:34:15;;;;;;;22.40;13.55;;;;;;;1.98;84.64;100694.77;1764562;81;21206;-72
2021/03/17 03:36:42;;;;;;;20.15;12.43;;;;;;;1.96;84.67;100703.26;1764712;81;21158;-72
2021/03/17 03:39:09;;;;;;;20.17;10.85;;;;;;;1.93;84.70;100708.73;1764504;81;21119;-72
2021/03/17 03:41:35;;;;;;;12.88;8.23;;;;;;;1.86;84.73;100708.80;1761815;81;21583;-72
2021/03/17 03:44:02;;;;;;;10.35;7.17;;;;;;;1.73;84.74;100706.63;1756050;81;21140;-72
2021/03/17 03:46:28;;;;;;;12.90;7.47;;;;;;;1.59;84.79;100712.84;1728660;81;21202;-72
2021/03/17 03:48:54;;;;;;;10.70;7.20;;;;;;;1.46;84.84;100707.59;1755964;81;21261;-72
2021/03/17 03:51:21;;;;;;;11.73;7.53;;;;;;;1.36;84.86;100713.11;1755933;81;21167;-72
2021/03/17 03:53:58;;;;;;;13.85;7.15;;;;;;;1.29;84.88;100715.78;1755940;81;21143;-73
2021/03/17 03:56:29;;;;;;;15.55;9.33;;;;;;;1.25;84.87;100719.55;1753242;81;21483;-73
2021/03/17 03:59:08;;;;;;;19.20;10.48;;;;;;;1.19;84.87;100714.72;1710991;83;21103;-73
2021/03/17 04:01:45;;;;;;;20.93;11.77;;;;;;;1.14;84.90;100715.48;1741257;81;22160;-73
2021/03/17 04:04:14;;;;;;;23.22;13.28;;;;;;;1.15;84.92;100712.39;1725098;82;21195;-72
2021/03/17 04:06:46;;;;;;;18.35;13.48;;;;;;;1.13;84.91;100719.05;1741081;82;21131;-72
2021/03/17 04:09:13;;;;;;;15.43;9.63;;;;;;;1.11;84.88;100713.07;1741186;82;21648;-73
2021/03/17 04:11:39;;;;;;;20.02;12.80;;;;;;;1.08;84.89;100711.97;1710980;83;21118;-72
2021/03/17 04:14:07;;;;;;;30.08;20.12;;;;;;;1.07;84.91;100711.59;1699177;82;21143;-72
2021/03/17 04:16:33;;;;;;;24.10;16.10;;;;;;;1.05;84.90;100712.17;1741173;82;21170;-73
2021/03/17 04:19:00;;;;;;;22.22;16.80;;;;;;;1.07;84.88;100712.05;1741027;82;21127;-72
2021/03/17 04:21:28;;;;;;;25.27;17.17;;;;;;;1.08;84.89;100714.59;1740818;81;21226;-72
2021/03/17 04:23:57;;;;;;;25.43;16.00;;;;;;;1.11;84.90;100712.22;1741236;82;21131;-72
2021/03/17 04:26:23;;;;;;;21.40;13.87;;;;;;;1.12;84.88;100712.13;1741565;82;21261;-72
2021/03/17 04:28:50;;;;;;;23.32;12.73;;;;;;;1.15;84.87;100713.23;1724382;82;21131;-72
2021/03/17 04:31:16;;;;;;;18.73;11.43;;;;;;;1.16;84.89;100713.59;1741212;82;21165;-72
2021/03/17 04:33:42;;;;;;;20.02;12.55;;;;;;;1.18;84.89;100710.41;1741316;82;21060;-72
2021/03/17 04:36:11;;;;;;;19.85;11.95;;;;;;;1.18;84.87;100713.03;1740864;82;21111;-72
2021/03/17 04:38:38;;;;;;;13.80;8.30;;;;;;;1.22;84.89;100719.77;1740659;82;22184;-72
2021/03/17 04:41:04;;;;;;;26.87;15.03;;;;;;;1.32;84.90;100712.95;1757305;81;21169;-73
2021/03/17 04:43:30;;;;;;;28.62;17.50;;;;;;;1.38;84.92;100715.15;1764645;81;21149;-72
2021/03/17 04:46:01;;;;;;;26.52;17.30;;;;;;;1.44;84.93;100713.41;1764671;81;21157;-73
2021/03/17 04:48:27;;;;;;;26.15;17.45;;;;;;;1.53;84.95;100713.27;1708233;84;21178;-73
2021/03/17 04:50:53;;;;;;;25.52;14.98;;;;;;;1.60;84.95;100712.38;1751106;81;21183;-72
2021/03/17 04:53:20;;;;;;;25.25;14.55;;;;;;;1.69;84.96;100718.33;1733999;81;21565;-73
2021/03/17 04:55:46;;;;;;;27.02;15.65;;;;;;;1.74;84.93;100724.09;1759974;80;21619;-73
2021/03/17 04:58:16;;;;;;;28.50;16.87;;;;;;;1.75;84.94;100720.06;1759609;81;21126;-73
2021/03/17 05:00:44;;;;;;;26.45;15.80;;;;;;;1.78;84.96;100726.88;1760201;81;21181;-73
2021/03/17 05:03:11;;;;;;;29.18;15.85;;;;;;;1.80;84.97;100724.98;1759959;81;22069;-73
2021/03/17 05:05:39;;;;;;;27.17;15.90;;;;;;;1.83;84.96;100722.98;1759640;81;21192;-73
2021/03/17 05:08:07;;;;;;;36.30;16.12;;;;;;;1.86;84.95;100732.46;1759963;81;21162;-73
2021/03/17 05:10:33;;;;;;;25.05;15.83;;;;;;;1.87;84.97;100728.39;1759948;81;21618;-73
2021/03/17 05:13:01;;;;;;;24.75;15.15;;;;;;;1.90;84.98;100728.67;1760169;81;21066;-73
2021/03/17 05:15:27;;;;;;;24.18;15.90;;;;;;;1.92;84.99;100738.60;1759881;80;21162;-73
2021/03/17 05:17:53;;;;;;;26.30;16.07;;;;;;;1.95;85.01;100738.38;1759926;80;21611;-73
2021/03/17 05:20:23;;;;;;;26.90;16.25;;;;;;;1.96;85.01;100738.30;1759600;81;21559;-73
2021/03/17 05:22:50;;;;;;;;;;;;;;;1.98;85.04;100732.91;1760410;81;21145;-72
2021/03/17 05:25:22;;;;;;;33.42;19.42;;;;;;;2.02;85.07;100734.38;1757909;81;20220;-72
2021/03/17 05:27:54;;;;;;;29.85;18.10;;;;;;;2.05;85.08;100734.16;1757632;81;21556;-72
2021/03/17 05:30:21;;;;;;;36.33;20.70;;;;;;;2.08;85.10;100727.83;1757681;81;21162;-72
2021/03/17 05:32:48;;;;;;;33.20;21.77;;;;;;;2.09;85.13;100727.74;1757632;81;21118;-72
2021/03/17 05:35:14;;;;;;;39.65;24.63;;;;;;;2.09;85.16;100722.48;1757620;81;21149;-72
2021/03/17 05:37:40;;;;;;;39.60;24.45;;;;;;;2.09;85.16;100731.69;1757880;81;21101;-72
2021/03/17 05:40:10;;;;;;;39.08;23.38;;;;;;;2.08;85.17;100731.31;1757764;81;21197;-72
2021/03/17 05:42:38;;;;;;;44.70;25.85;;;;;;;2.09;85.19;100727.74;1757817;81;21177;-72
2021/03/17 05:45:14;;;;;;;34.33;17.40;;;;;;;2.08;85.20;100733.94;1757691;81;21126;-73
2021/03/17 05:47:48;;;;;;;29.35;16.17;;;;;;;2.07;85.23;100731.44;1757359;81;21181;-72
2021/03/17 05:50:17;;;;;;;23.10;13.08;;;;;;;2.06;85.22;100738.95;1757766;81;21161;-72
2021/03/17 05:52:43;;;;;;;21.45;13.32;;;;;;;2.04;85.22;100745.66;1757592;81;22118;-72
2021/03/17 05:55:12;;;;;;;28.70;16.32;;;;;;;2.01;85.24;100750.62;1757616;81;21146;-72
2021/03/17 05:57:38;;;;;;;17.87;11.20;;;;;;;2.02;85.26;100752.79;1757668;81;21114;-73
2021/03/17 06:00:08;;;;;;;19.45;11.65;;;;;;;2.01;85.27;100756.36;1757857;81;21637;-73
2021/03/17 06:02:37;;;;;;;;;;;;;;;1.99;85.29;100759.11;1760317;81;21121;-73
2021/03/17 06:05:05;;;;;;;34.87;15.63;;;;;;;2.01;85.31;100762.94;1756759;81;22192;-72
2021/03/17 06:07:42;;;;;;;72.60;28.32;;;;;;;2.02;85.31;100775.14;1757778;81;21149;-72
2021/03/17 06:10:10;;;;;;;87.27;36.33;;;;;;;2.02;85.35;100771.20;1757847;81;21552;-73
2021/03/17 06:12:38;;;;;;;100.90;41.48;;;;;;;2.01;85.37;100777.40;1757868;81;21162;-73
2021/03/17 06:15:06;;;;;;;82.65;34.05;;;;;;;2.02;85.39;100775.14;1757438;81;21166;-72
2021/03/17 06:17:36;;;;;;;107.07;39.95;;;;;;;2.01;85.40;100774.77;1757905;81;21179;-73
2021/03/17 06:20:06;;;;;;;28.00;16.65;;;;;;;2.03;85.39;100778.63;1757770;81;21627;-72
2021/03/17 06:22:33;;;;;;;;;;;;;;;2.05;85.41;100784.13;1760207;81;21106;-72
2021/03/17 06:25:05;;;;;;;30.57;16.35;;;;;;;2.07;85.40;100786.20;1757581;81;20268;-72
2021/03/17 06:27:34;;;;;;;48.55;21.07;;;;;;;2.05;85.40;100784.13;1757521;81;21145;-72
2021/03/17 06:30:05;;;;;;;33.48;17.10;;;;;;;2.07;85.42;100784.89;1741674;81;21500;-72
2021/03/17 06:32:33;;;;;;;39.90;19.60;;;;;;;2.11;85.38;100791.59;1739131;82;21142;-73
2021/03/17 06:34:59;;;;;;;33.08;18.57;;;;;;;2.16;85.40;100793.44;1734772;82;21171;-73
2021/03/17 06:37:37;;;;;;;57.35;26.50;;;;;;;2.20;85.40;100800.18;1733879;82;21525;-73
2021/03/17 06:40:23;;;;;;;49.53;24.80;;;;;;;2.25;85.40;100801.19;1721191;82;21119;-72
2021/03/17 06:42:49;;;;;;;55.20;28.30;;;;;;;2.29;85.41;100810.05;1734308;82;21249;-72
2021/03/17 06:45:38;;;;;;;34.30;19.42;;;;;;;2.35;85.43;100807.01;1733867;82;21576;-73
2021/03/17 06:48:24;;;;;;;39.15;20.10;;;;;;;2.40;85.44;100807.98;1734070;82;21155;-73
2021/03/17 06:51:11;;;;;;;46.48;24.80;;;;;;;2.44;85.44;100809.45;1733857;82;21581;-73
2021/03/17 06:53:53;;;;;;;47.85;24.47;;;;;;;2.48;85.50;100811.77;1734131;82;21151;-73
2021/03/17 06:56:32;;;;;;;58.65;27.05;;;;;;;2.51;85.52;100811.55;1733925;82;21203;-73
2021/03/17 06:59:05;;;;;;;43.67;21.97;;;;;;;2.51;85.53;100816.81;1733742;82;21167;-72
2021/03/17 07:01:46;;;;;;;50.15;27.67;;;;;;;2.51;85.52;100826.02;1733975;82;21458;-73
2021/03/17 07:04:21;;;;;;;54.85;29.52;;;;;;;2.53;85.53;100831.66;1734081;82;21179;-73
2021/03/17 07:06:49;;;;;;;51.95;27.07;;;;;;;2.50;85.52;100828.28;1733866;82;21158;-73
2021/03/17 07:09:26;;;;;;;47.55;23.18;;;;;;;2.46;85.52;100834.70;1721341;82;21213;-73
2021/03/17 07:12:07;;;;;;;44.20;21.70;;;;;;;2.42;85.52;100831.10;1744091;81;22112;-72
2021/03/17 07:14:39;;;;;;;35.43;18.87;;;;;;;2.37;85.52;100832.73;1772200;79;21139;-72
2021/03/17 07:17:27;;;;;;;30.88;18.62;;;;;;;2.33;85.50;100836.52;1771021;80;21170;-72
2021/03/17 07:19:53;;;;;;;36.80;18.80;;;;;;;2.28;85.53;100843.06;1770371;80;21150;-72
2021/03/17 07:22:22;;;;;;;37.03;21.55;;;;;;;2.24;85.52;100845.53;1759634;81;21194;-72
2021/03/17 07:25:02;;;;;;;43.55;21.15;;;;;;;2.20;85.53;100848.84;1754911;81;21612;-73
2021/03/17 07:27:29;;;;;;;41.68;21.62;;;;;;;2.12;85.57;100843.27;1741040;82;21143;-73
2021/03/17 07:30:07;;;;;;;43.92;24.20;;;;;;;2.10;85.57;100845.17;1739965;82;21604;-73
2021/03/17 07:33:00;;;;;;;48.28;24.72;;;;;;;2.06;85.61;100854.22;1734300;82;21093;-72
2021/03/17 07:35:35;;;;;;;41.15;22.98;;;;;;;2.02;85.59;100865.89;1746144;81;21298;-72
2021/03/17 07:38:09;;;;;;;39.20;21.05;;;;;;;1.94;85.62;100855.03;1758306;81;21167;-72
2021/03/17 07:40:36;;;;;;;40.75;19.45;;;;;;;1.94;85.62;100873.44;1758227;81;21147;-72
2021/03/17 07:43:03;;;;;;;37.63;20.40;;;;;;;1.93;85.60;100871.78;1761618;81;21194;-72
2021/03/17 07:45:29;;;;;;;35.28;20.57;;;;;;;1.90;85.59;100868.86;1764138;81;21122;-72
2021/03/17 07:47:55;;;;;;;38.08;22.48;;;;;;;1.91;85.59;100873.66;1728386;82;21421;-72
2021/03/17 07:50:22;;;;;;;39.03;22.55;;;;;;;1.92;85.59;100868.77;1723276;83;21200;-72
2021/03/17 07:52:50;;;;;;;58.15;27.17;;;;;;;1.96;85.59;100871.57;1743184;82;21110;-72
2021/03/17 07:55:17;;;;;;;50.63;25.90;;;;;;;1.94;85.62;100872.13;1743102;82;21154;-72
2021/03/17 07:57:43;;;;;;;54.95;27.00;;;;;;;1.96;85.62;100874.20;1742613;82;21577;-72
2021/03/17 08:00:10;;;;;;;84.20;34.53;;;;;;;2.01;85.62;100873.39;1737970;81;21207;-73
2021/03/17 08:02:37;;;;;;;57.55;33.13;;;;;;;2.14;85.60;100869.01;1735614;81;21167;-73
2021/03/17 08:05:04;;;;;;;72.32;33.33;;;;;;;2.27;85.58;100871.63;1741494;81;21195;-72
2021/03/17 08:07:31;;;;;;;59.98;31.73;;;;;;;2.35;85.58;100875.90;1738550;81;21206;-73
2021/03/17 08:09:58;;;;;;;51.98;31.07;;;;;;;2.39;85.57;100878.19;1735428;80;21622;-73
2021/03/17 08:12:24;;;;;;;55.17;29.35;;;;;;;2.38;85.55;100883.11;1726821;82;22189;-72
2021/03/17 08:14:51;;;;;;;61.40;29.35;;;;;;;2.43;85.56;100878.82;1739450;82;21574;-72
2021/03/17 08:17:36;;;;;;;64.22;27.32;;;;;;;2.49;85.52;100883.69;1737449;80;21702;-72
2021/03/17 08:20:23;;;;;;;49.40;26.40;;;;;;;2.65;85.54;100887.39;1724831;82;21198;-73
2021/03/17 08:22:51;;;;;;;41.13;23.73;;;;;;;2.82;85.51;100900.20;1739418;82;21662;-72
2021/03/17 08:25:45;;;;;;;63.83;26.73;;;;;;;2.97;85.45;100897.81;1721882;82;21218;-72
2021/03/17 08:28:24;;;;;;;45.52;25.90;;;;;;;3.08;85.43;100887.35;1734847;81;21167;-72
2021/03/17 08:30:55;;;;;;;43.33;24.12;;;;;;;3.29;85.36;100895.02;1708868;84;21155;-72
2021/03/17 08:33:39;;;;;;;41.77;22.82;;;;;;;3.40;85.30;100900.36;1740891;81;21161;-72
2021/03/17 08:36:13;;;;;;;39.48;23.75;;;;;;;3.45;85.27;100904.80;1737818;80;21158;-73
2021/03/17 08:38:50;;;;;;;44.00;25.55;;;;;;;3.51;85.23;100901.74;1741967;82;22118;-73
2021/03/17 08:41:46;;;;;;;46.58;26.55;;;;;;;3.62;85.20;100900.11;1728161;82;21190;-73
2021/03/17 08:44:15;;;;;;;33.13;19.30;;;;;;;3.66;85.11;100900.25;1716048;80;21189;-73
2021/03/17 08:46:41;;;;;;;29.97;17.07;;;;;;;3.64;84.98;100902.98;1737576;80;21588;-73
2021/03/17 08:49:11;;;;;;;53.17;23.50;;;;;;;3.61;84.90;100902.38;1743675;80;21617;-73
2021/03/17 08:51:52;;;;;;;33.92;19.98;;;;;;;3.60;84.83;100919.14;1752546;80;22081;-73
2021/03/17 08:54:41;;;;;;;30.70;19.32;;;;;;;3.63;84.72;100898.66;1721378;81;21653;-72
2021/03/17 08:57:08;;;;;;;30.35;17.10;;;;;;;3.82;84.65;100903.42;1748601;79;21171;-72
2021/03/17 08:59:59;;;;;;;31.25;18.90;;;;;;;3.88;84.55;100902.48;1763508;79;21190;-72
2021/03/17 09:02:33;;;;;;;39.92;19.10;;;;;;;3.93;84.45;100904.78;1706803;81;21198;-72
2021/03/17 09:05:02;;;;;;;36.95;20.48;;;;;;;3.85;84.35;100901.86;1755583;81;22153;-72
2021/03/17 09:07:32;;;;;;;40.12;22.42;;;;;;;3.79;84.25;100910.24;1732086;82;21608;-72
2021/03/17 09:10:01;;;;;;;37.70;21.90;;;;;;;3.69;84.17;100908.78;1738891;82;21642;-72
2021/03/17 09:12:36;;;;;;;32.80;19.30;;;;;;;3.61;84.07;100914.23;1728602;82;21187;-72
2021/03/17 09:15:17;;;;;;;29.55;17.52;;;;;;;3.46;83.96;100913.09;1753257;81;21168;-72
2021/03/17 09:17:56;;;;;;;44.48;22.15;;;;;;;3.37;83.85;100911.14;1754577;81;21208;-72
2021/03/17 09:20:42;;;;;;;37.25;18.60;;;;;;;3.34;83.81;100913.97;1732756;82;21214;-72
2021/03/17 09:23:18;;;;;;;34.65;17.92;;;;;;;3.35;83.70;100911.70;1692716;83;21679;-72
2021/03/17 09:25:51;;;;;;;21.20;13.45;;;;;;;3.36;83.59;100916.03;1700257;82;21180;-72
2021/03/17 09:28:30;;;;;;;24.37;12.55;;;;;;;3.37;83.52;100917.73;1731285;81;21627;-72
2021/03/17 09:31:03;;;;;;;25.90;14.50;;;;;;;3.34;83.47;100919.23;1732036;81;21212;-71
2021/03/17 09:33:38;;;;;;;27.42;13.65;;;;;;;3.30;83.39;100917.80;1718493;81;21172;-73
2021/03/17 09:36:10;;;;;;;51.30;17.98;;;;;;;3.32;83.34;100925.11;1724172;82;21678;-72
2021/03/17 09:38:40;;;;;;;25.88;14.43;;;;;;;3.31;83.24;100922.10;1725182;81;21166;-72
2021/03/17 09:41:23;;;;;;;87.57;21.25;;;;;;;3.32;83.19;100925.11;1734565;81;21785;-72
2021/03/17 09:43:53;;;;;;;28.12;16.10;;;;;;;3.40;83.11;100926.73;1728224;81;21262;-72
2021/03/17 09:46:30;;;;;;;24.85;13.30;;;;;;;3.48;83.01;100933.58;1735849;81;21171;-73
2021/03/17 09:49:05;;;;;;;41.40;14.15;;;;;;;3.56;82.92;100933.02;1752383;81;21178;-72
2021/03/17 09:51:35;;;;;;;48.08;15.30;;;;;;;3.61;82.83;100938.81;1736832;81;21159;-72
2021/03/17 09:54:05;;;;;;;26.57;14.40;;;;;;;3.66;82.75;100933.22;1740824;81;21225;-72
2021/03/17 09:56:50;;;;;;;22.02;9.98;;;;;;;3.75;82.65;100937.80;1761267;81;24917;-72
2021/03/17 09:59:22;;;;;;;17.70;9.63;;;;;;;3.82;82.56;100942.98;1748965;81;21213;-72
2021/03/17 10:02:10;;;;;;;17.70;10.35;;;;;;;3.90;82.46;100939.31;1737145;81;22209;-72
2021/03/17 10:04:43;;;;;;;23.95;11.65;;;;;;;3.85;82.40;100946.23;1702879;82;21215;-72
2021/03/17 10:07:15;;;;;;;21.57;11.60;;;;;;;3.81;82.27;100945.25;1707079;84;21627;-72
2021/03/17 10:09:43;;;;;;;22.50;11.33;;;;;;;3.80;82.19;100944.91;1704411;84;21250;-71
2021/03/17 10:12:15;;;;;;;35.23;12.45;;;;;;;3.76;82.11;100950.05;1691048;83;21209;-71
2021/03/17 10:14:46;;;;;;;23.85;12.05;;;;;;;3.72;82.00;100953.85;1711138;82;21231;-71
2021/03/17 10:17:14;;;;;;;37.73;14.70;;;;;;;3.70;81.90;100950.47;1716478;82;21191;-71
2021/03/17 10:19:40;;;;;;;18.37;10.53;;;;;;;3.72;81.77;100949.90;1708148;83;21186;-71
2021/03/17 10:22:07;;;;;;;25.00;12.53;;;;;;;3.72;81.64;100953.85;1718562;82;21285;-72
2021/03/17 10:24:43;;;;;;;21.12;11.83;;;;;;;3.70;81.53;100949.15;1745232;81;21249;-72
2021/03/17 10:27:13;;;;;;;58.83;16.37;;;;;;;3.73;81.42;100956.86;1739101;82;21191;-72
2021/03/17 10:29:40;;;;;;;24.67;12.50;;;;;;;3.70;81.33;100954.42;1745425;81;21994;-72
2021/03/17 10:32:09;;;;;;;30.75;11.95;;;;;;;3.76;81.22;100956.63;1753109;81;21646;-72
2021/03/17 10:34:35;;;;;;;24.63;12.25;;;;;;;3.79;81.15;100957.72;1743876;80;22261;-72
2021/03/17 10:37:02;;;;;;;23.20;13.30;;;;;;;3.85;81.05;100957.27;1744100;80;21158;-72
2021/03/17 10:39:34;;;;;;;32.88;15.05;;;;;;;3.91;80.94;100954.16;1746681;80;21111;-72
2021/03/17 10:42:00;;;;;;;34.83;16.42;;;;;;;3.98;80.86;100953.59;1753690;81;21119;-72
2021/03/17 10:44:29;;;;;;;36.85;15.55;;;;;;;4.07;80.82;100953.88;1741617;82;22215;-71
2021/03/17 10:47:08;;;;;;;27.10;14.07;;;;;;;4.09;80.76;100959.39;1742049;82;21195;-72
2021/03/17 10:49:37;;;;;;;25.43;13.90;;;;;;;4.05;80.69;100955.30;1740025;82;21222;-71
2021/03/17 10:52:03;;;;;;;24.93;13.90;;;;;;;4.04;80.66;100961.55;1741426;82;21158;-71
2021/03/17 10:54:36;;;;;;;23.55;12.95;;;;;;;4.01;80.58;100957.83;1745382;80;21163;-71
2021/03/17 10:57:03;;;;;;;23.15;13.08;;;;;;;4.00;80.52;100956.14;1741991;82;21155;-72
2021/03/17 10:59:37;;;;;;;21.87;12.88;;;;;;;4.04;80.46;100957.59;1758766;79;21600;-71
2021/03/17 11:02:30;;;;;;;24.92;13.00;;;;;;;4.12;80.39;100959.16;1760250;79;21203;-72
2021/03/17 11:05:17;;;;;;;35.58;14.68;;;;;;;4.20;80.31;100958.59;1738209;80;21167;-72
2021/03/17 11:08:10;;;;;;;23.05;13.50;;;;;;;4.27;80.21;100956.70;1742281;81;21225;-71
2021/03/17 11:10:56;;;;;;;28.85;14.10;;;;;;;4.29;80.09;100956.09;1814639;77;22718;-73
2021/03/17 11:13:27;;;;;;;23.42;13.93;;;;;;;4.24;80.03;100954.30;1783848;80;21195;-72
2021/03/17 11:15:56;;;;;;;28.75;15.08;;;;;;;4.25;79.94;100957.30;1761989;80;21143;-72
2021/03/17 11:18:45;;;;;;;27.93;16.20;;;;;;;4.25;79.82;100955.98;1770769;80;21068;-72
2021/03/17 11:21:32;;;;;;;27.70;15.20;;;;;;;4.21;79.73;100958.48;1772676;80;21147;-72
2021/03/17 11:24:04;;;;;;;25.52;13.48;;;;;;;4.22;79.65;100954.87;1762744;80;21202;-72
2021/03/17 11:26:38;;;;;;;21.80;11.88;;;;;;;4.25;79.51;100963.06;1781007;80;21557;-72
2021/03/17 11:29:17;;;;;;;25.08;11.55;;;;;;;4.27;79.42;100954.05;1782771;80;21620;-72
2021/03/17 11:31:44;;;;;;;43.23;20.68;;;;;;;4.41;79.37;100950.36;1766772;80;21195;-72
2021/03/17 11:34:11;;;;;;;67.15;30.08;;;;;;;4.61;79.29;100955.45;1764161;80;21001;-72
2021/03/17 11:36:37;;;;;;;24.35;13.28;;;;;;;4.78;79.26;100952.34;1759804;80;21131;-72
2021/03/17 11:39:08;;;;;;;30.00;15.18;;;;;;;4.87;79.18;100960.86;1785288;80;21131;-72